Time;durP1;ratioP1;P1;durP2;ratioP2;P2;SDS_P1;SDS_P2;PMS_P1;PMS_P2;Temp;Humidity;BMP_temperature;BMP_pressure;BME280_temperature;BME280_humidity;BME280_pressure;Samples;Min_cycle;Max_cycle;Signal;HPM_P1;HPM_P2
2022/01/22 00:01:50;;;;;;;4.73;1.00;;;2.80;90.60;;;;;;5072761;28;20230;-61
2022/01/22 00:04:18;;;;;;;3.50;0.87;;;2.70;90.50;;;;;;5085469;28;20243;-60
2022/01/22 00:06:45;;;;;;;2.30;0.90;;;3.60;91.00;;;;;;5089548;28;20283;-60
2022/01/22 00:09:12;;;;;;;5.80;1.10;;;2.80;90.80;;;;;;5087489;28;20227;-60
2022/01/22 00:11:50;;;;;;;2.90;0.90;;;2.80;91.00;;;;;;5089884;28;20249;-59
2022/01/22 00:14:25;;;;;;;2.23;1.20;;;2.80;91.20;;;;;;5086705;28;20238;-60
2022/01/22 00:16:55;;;;;;;10.45;1.55;;;2.90;91.80;;;;;;5087070;28;20188;-61
2022/01/22 00:19:23;;;;;;;4.87;1.23;;;2.90;92.20;;;;;;5086221;28;20189;-61
2022/01/22 00:21:51;;;;;;;1.37;0.83;;;2.90;92.30;;;;;;5084877;28;20196;-61
2022/01/22 00:24:18;;;;;;;1.10;0.80;;;2.90;92.30;;;;;;5084055;28;20274;-59
2022/01/22 00:26:46;;;;;;;7.37;1.30;;;2.90;92.20;;;;;;5084890;28;20196;-61
2022/01/22 00:29:15;;;;;;;3.77;1.20;;;2.90;92.10;;;;;;5082749;28;20627;-60
2022/01/22 00:31:43;;;;;;;4.33;1.40;;;2.90;92.00;;;;;;5082256;28;20204;-60
2022/01/22 00:34:11;;;;;;;3.80;1.20;;;2.90;92.10;;;;;;5081387;28;20208;-60
2022/01/22 00:36:40;;;;;;;2.47;1.30;;;3.00;92.10;;;;;;5070705;28;20193;-60
2022/01/22 00:39:07;;;;;;;4.70;1.30;;;2.90;92.00;;;;;;5081672;28;20216;-61
2022/01/22 00:41:36;;;;;;;2.13;1.10;;;2.90;91.70;;;;;;5079756;28;20200;-60
2022/01/22 00:44:03;;;;;;;2.20;0.80;;;2.90;91.50;;;;;;5080839;28;20201;-61
2022/01/22 00:46:30;;;;;;;4.87;1.30;;;2.80;91.40;;;;;;5078863;28;20660;-60
2022/01/22 00:48:57;;;;;;;1.80;0.83;;;2.80;91.00;;;;;;5080630;28;20199;-60
2022/01/22 00:51:26;;;;;;;8.13;1.23;;;2.80;90.70;;;;;;5078817;28;20200;-60
2022/01/22 00:53:53;;;;;;;2.77;0.97;;;2.90;90.40;;;;;;5074853;28;20201;-60
2022/01/22 00:56:20;;;;;;;3.23;1.00;;;2.90;90.10;;;;;;5070227;28;20201;-61
2022/01/22 00:58:47;;;;;;;11.30;1.97;;;2.90;90.10;;;;;;5075195;28;20216;-60
2022/01/22 01:01:14;;;;;;;5.10;1.63;;;2.90;90.30;;;;;;5064139;28;20192;-60
2022/01/22 01:03:41;;;;;;;2.20;0.90;;;2.90;89.50;;;;;;5089385;28;20204;-60
2022/01/22 01:06:08;;;;;;;1.80;0.80;;;2.80;89.20;;;;;;5086172;28;20207;-59
2022/01/22 01:08:37;;;;;;;2.33;0.90;;;2.90;89.40;;;;;;5087943;28;20746;-61
2022/01/22 01:11:06;;;;;;;7.00;1.00;;;2.80;89.30;;;;;;5084743;28;20598;-60
2022/01/22 01:13:40;;;;;;;3.17;1.00;;;2.80;88.90;;;;;;5086333;28;20207;-60
2022/01/22 01:16:18;;;;;;;6.23;1.20;;;2.80;88.80;;;;;;5085282;28;20204;-60
2022/01/22 01:32:39;;;;;;;3.67;1.13;;;2.70;86.10;;;;;;5081297;28;20540;-60
2022/01/22 01:35:08;;;;;;;1.93;0.73;;;2.70;86.60;;;;;;5080303;28;20747;-60
2022/01/22 01:37:35;;;;;;;1.13;0.50;;;2.80;86.90;;;;;;5079202;28;20323;-60
2022/01/22 01:40:07;;;;;;;0.87;0.83;;;2.80;87.30;;;;;;5073216;28;20201;-60
2022/01/22 01:42:43;;;;;;;0.57;0.53;;;2.80;87.50;;;;;;5074854;28;20555;-60
2022/01/22 01:45:11;;;;;;;1.57;0.60;;;2.90;87.50;;;;;;5074371;28;20209;-60
2022/01/22 01:47:53;;;;;;;5.30;0.70;;;2.90;87.40;;;;;;5073391;28;20742;-60
2022/01/22 01:50:20;;;;;;;3.63;0.70;;;3.00;87.50;;;;;;5073608;28;20205;-61
2022/01/22 01:53:01;;;;;;;1.27;0.80;;;3.00;87.60;;;;;;5076389;28;20559;-61
2022/01/22 01:55:36;;;;;;;1.17;0.80;;;3.00;87.20;;;;;;5073115;28;20279;-60
2022/01/22 01:58:16;;;;;;;7.03;1.03;;;3.10;87.30;;;;;;5064096;28;20330;-60
2022/01/22 02:00:45;;;;;;;3.07;0.80;;;3.10;86.70;;;;;;5086345;28;20636;-60
2022/01/22 02:03:13;;;;;;;4.17;1.20;;;3.10;86.50;;;;;;5086623;28;20203;-61
2022/01/22 02:05:44;;;;;;;3.27;0.70;;;3.10;86.00;;;;;;5083485;28;20208;-61
2022/01/22 02:08:13;;;;;;;4.27;1.00;;;3.10;86.20;;;;;;5078761;28;20193;-61
2022/01/22 02:10:56;;;;;;;1.03;0.60;;;3.10;86.40;;;;;;5077844;28;20291;-61
2022/01/22 02:13:58;;;;;;;1.43;0.70;;;3.20;86.40;;;;;;5081869;28;20207;-61
2022/01/22 02:25:00;;;;;;;0.93;0.70;;;3.10;85.60;;;;;;5078641;28;20590;-60
2022/01/22 02:27:27;;;;;;;2.53;0.60;;;3.20;85.70;;;;;;5092123;28;20196;-60
2022/01/22 02:29:54;;;;;;;1.77;1.00;;;3.20;86.00;;;;;;5078457;28;20204;-61
2022/01/22 02:33:07;;;;;;;4.30;1.30;;;3.10;85.70;;;;;;5062678;28;20215;-60
2022/01/22 02:35:42;;;;;;;2.23;0.87;;;3.10;86.00;;;;;;5088880;28;20289;-60
2022/01/22 02:38:17;;;;;;;2.10;0.97;;;3.10;86.20;;;;;;5079672;28;20296;-61
2022/01/22 02:40:46;;;;;;;2.77;1.37;;;3.10;86.50;;;;;;5074183;28;20195;-60
2022/01/22 02:43:15;;;;;;;5.33;1.67;;;3.10;86.80;;;;;;5077526;28;20243;-60
2022/01/22 02:45:45;;;;;;;2.33;1.07;;;3.10;87.10;;;;;;5080055;28;20208;-60
2022/01/22 02:48:13;;;;;;;1.30;0.70;;;3.10;87.30;;;;;;5072851;28;20208;-61
2022/01/22 02:50:40;;;;;;;1.37;0.80;;;3.10;87.40;;;;;;5078869;28;20291;-60
2022/01/22 02:53:11;;;;;;;3.60;1.03;;;3.10;87.60;;;;;;5078338;28;20205;-61
2022/01/22 02:55:40;;;;;;;0.70;0.70;;;3.10;87.60;;;;;;5074030;28;20664;-60
2022/01/22 02:58:09;;;;;;;1.10;0.83;;;3.20;87.60;;;;;;5074494;28;20208;-60
2022/01/22 03:00:37;;;;;;;2.93;0.90;;;3.20;87.40;;;;;;5075422;28;20192;-61
2022/01/22 03:03:06;;;;;;;4.33;1.00;;;3.20;87.20;;;;;;5114067;28;20209;-61
2022/01/22 03:05:34;;;;;;;1.60;0.83;;;3.20;87.00;;;;;;5079016;28;20291;-61
2022/01/22 03:08:06;;;;;;;8.67;0.80;;;3.20;86.70;;;;;;5090076;28;20342;-60
2022/01/22 03:10:36;;;;;;;3.63;1.23;;;3.20;86.80;;;;;;5078656;28;20291;-60
2022/01/22 03:13:22;;;;;;;2.37;0.97;;;3.20;86.30;;;;;;5084400;28;20291;-60
2022/01/22 03:15:59;;;;;;;1.43;0.50;;;3.20;86.50;;;;;;5082040;28;20266;-61
2022/01/22 03:18:40;;;;;;;2.70;1.20;;;3.20;86.50;;;;;;5084401;28;20211;-59
2022/01/22 03:21:15;;;;;;;1.60;0.80;;;3.20;86.60;;;;;;5073131;28;20196;-60
2022/01/22 03:29:18;;;;;;;2.27;1.10;;;3.10;86.80;;;;;;5082295;28;20730;-59
2022/01/22 03:31:45;;;;;;;0.80;0.70;;;3.10;86.30;;;;;;5085259;28;20218;-60
2022/01/22 03:34:13;;;;;;;5.47;1.20;;;3.10;86.60;;;;;;5082464;28;20197;-60
2022/01/22 03:36:41;;;;;;;1.87;0.93;;;3.10;86.70;;;;;;5077184;28;20505;-59
2022/01/22 03:39:11;;;;;;;4.97;1.33;;;3.10;87.10;;;;;;5082802;28;20213;-60
2022/01/22 03:41:42;;;;;;;3.53;0.93;;;3.10;87.50;;;;;;5082773;28;20209;-60
2022/01/22 03:44:11;;;;;;;3.13;1.17;;;3.10;87.60;;;;;;5084296;28;20633;-60
2022/01/22 03:46:41;;;;;;;4.17;1.40;;;3.10;87.50;;;;;;5080646;28;20220;-60
2022/01/22 03:49:10;;;;;;;4.23;1.10;;;3.10;87.70;;;;;;5081367;28;20204;-60
2022/01/22 03:51:38;;;;;;;3.17;0.93;;;3.10;88.00;;;;;;5078863;28;20200;-61
2022/01/22 03:54:06;;;;;;;2.40;0.90;;;3.10;88.30;;;;;;5078781;28;20205;-61
2022/01/22 03:56:33;;;;;;;1.00;0.87;;;3.10;88.60;;;;;;5075751;28;20223;-61
2022/01/22 03:59:14;;;;;;;2.20;1.10;;;3.10;88.70;;;;;;5084432;28;20215;-61
2022/01/22 04:02:30;;;;;;;1.90;1.10;;;3.20;88.90;;;;;;5063287;28;20209;-61
2022/01/22 04:05:02;;;;;;;5.40;1.27;;;3.20;89.10;;;;;;5076418;28;20207;-60
2022/01/22 04:08:09;;;;;;;2.10;1.03;;;3.20;89.20;;;;;;5083155;28;20661;-60
2022/01/22 04:10:35;;;;;;;2.57;1.20;;;3.20;89.30;;;;;;5081980;28;20621;-60
2022/01/22 04:13:05;;;;;;;2.33;1.20;;;3.20;89.50;;;;;;5088781;28;20216;-60
2022/01/22 04:15:38;;;;;;;3.47;1.30;;;3.30;89.70;;;;;;5086219;28;20197;-60
2022/01/22 04:26:29;;;;;;;2.10;1.27;;;3.20;90.00;;;;;;5078951;28;20659;-60
2022/01/22 04:28:57;;;;;;;3.37;1.07;;;3.20;90.10;;;;;;5082642;28;20192;-61
2022/01/22 04:31:26;;;;;;;2.93;1.27;;;3.20;90.20;;;;;;5086994;28;20249;-60
2022/01/22 04:33:53;;;;;;;2.53;1.20;;;3.20;90.20;;;;;;5079933;28;20202;-61
2022/01/22 04:36:21;;;;;;;1.93;1.17;;;3.20;90.20;;;;;;5084779;28;20291;-61
2022/01/22 04:38:48;;;;;;;1.30;0.87;;;3.20;90.10;;;;;;5080090;28;20335;-60
2022/01/22 04:41:16;;;;;;;3.87;1.37;;;3.20;90.20;;;;;;5073646;28;20197;-60
2022/01/22 04:43:44;;;;;;;1.80;0.90;;;3.20;90.10;;;;;;5081820;28;20680;-60
2022/01/22 04:46:19;;;;;;;4.53;1.20;;;3.20;90.10;;;;;;5080511;28;20279;-60
2022/01/22 04:48:54;;;;;;;6.37;2.03;;;3.20;90.20;;;;;;5078534;28;20227;-59
2022/01/22 04:56:56;;;;;;;4.33;1.27;;;3.20;90.40;;;;;;5062911;28;20665;-61
2022/01/22 04:59:23;;;;;;;4.57;1.40;;;3.20;90.50;;;;;;5079724;28;20254;-60
2022/01/22 05:01:51;;;;;;;2.57;1.10;;;3.20;90.60;;;;;;5089544;28;20196;-60
2022/01/22 05:04:48;;;;;;;2.10;1.13;;;3.20;90.70;;;;;;5080028;28;20283;-61
2022/01/22 05:07:29;;;;;;;4.57;1.30;;;3.30;90.80;;;;;;5087545;28;20201;-61
2022/01/22 05:10:14;;;;;;;1.97;1.20;;;3.30;90.80;;;;;;5089635;28;20304;-60
2022/01/22 05:12:43;;;;;;;4.13;1.43;;;3.30;90.60;;;;;;5084716;28;20211;-60
2022/01/22 05:15:11;;;;;;;3.47;0.77;;;3.30;90.40;;;;;;5087640;28;20224;-59
2022/01/22 05:17:42;;;;;;;4.97;1.50;;;3.20;90.30;;;;;;5085706;28;20216;-59
2022/01/22 05:20:24;;;;;;;2.33;1.10;;;3.30;90.20;;;;;;5083524;28;20224;-61
2022/01/22 05:22:58;;;;;;;1.57;0.97;;;3.20;90.10;;;;;;5089005;28;20203;-60
2022/01/22 05:25:32;;;;;;;4.40;1.27;;;3.20;90.10;;;;;;5075749;28;20530;-60
2022/01/22 05:28:11;;;;;;;6.23;2.00;;;3.20;90.00;;;;;;5085089;28;20219;-61
2022/01/22 05:31:30;;;;;;;6.53;1.53;;;3.20;90.00;;;;;;5067426;28;20560;-61
2022/01/22 05:37:29;;;;;;;4.50;1.80;;;3.30;89.80;;;;;;5073872;28;20240;-60
2022/01/22 05:39:56;;;;;;;2.47;1.30;;;3.30;89.50;;;;;;5071687;28;20554;-60
2022/01/22 05:42:23;;;;;;;2.53;1.30;;;3.30;89.50;;;;;;5080023;28;20204;-60
2022/01/22 05:44:50;;;;;;;6.60;1.73;;;2.90;89.00;;;;;;5077709;28;20212;-60
2022/01/22 05:47:21;;;;;;;6.80;2.13;;;3.40;89.20;;;;;;5081751;28;20204;-59
2022/01/22 05:49:49;;;;;;;2.07;1.03;;;3.40;89.60;;;;;;5075670;28;20189;-59
2022/01/22 05:52:23;;;;;;;5.47;1.57;;;3.30;88.80;;;;;;5080575;28;20196;-59
2022/01/22 05:55:10;;;;;;;3.50;1.60;;;3.30;88.90;;;;;;5069459;28;20196;-61
2022/01/22 06:00:37;;;;;;;2.50;1.33;;;3.30;89.00;;;;;;5087974;28;20204;-60
2022/01/22 06:03:16;;;;;;;4.10;1.27;;;3.30;89.00;;;;;;5060536;28;20201;-60
2022/01/22 06:05:44;;;;;;;5.23;1.60;;;3.30;89.00;;;;;;5078278;28;20204;-60
2022/01/22 06:08:15;;;;;;;2.30;1.10;;;3.30;88.30;;;;;;5085168;28;20650;-61
2022/01/22 06:10:46;;;;;;;4.53;1.10;;;3.20;88.30;;;;;;5079824;28;20192;-61
2022/01/22 06:13:17;;;;;;;3.67;1.50;;;3.30;88.40;;;;;;5084619;28;20203;-60
2022/01/22 06:15:44;;;;;;;3.03;1.50;;;3.20;88.80;;;;;;5079512;28;20224;-60
2022/01/22 06:18:28;;;;;;;5.77;2.10;;;3.20;88.10;;;;;;5084790;28;20707;-60
2022/01/22 06:20:55;;;;;;;4.50;1.70;;;3.20;88.60;;;;;;5079795;28;20228;-60
2022/01/22 06:23:22;;;;;;;5.20;1.50;;;3.20;89.00;;;;;;5084957;28;20277;-60
2022/01/22 06:25:51;;;;;;;5.30;1.57;;;4.40;90.20;;;;;;5080177;28;20623;-60
2022/01/22 06:28:18;;;;;;;2.27;1.20;;;3.20;89.30;;;;;;5081571;28;20231;-60
2022/01/22 06:30:47;;;;;;;7.87;2.60;;;3.30;89.50;;;;;;5080070;28;20227;-59
2022/01/22 06:33:14;;;;;;;5.30;2.10;;;3.30;89.40;;;;;;5081054;28;20303;-60
2022/01/22 06:35:41;;;;;;;4.33;1.27;;;3.30;89.30;;;;;;5078043;28;20220;-59
2022/01/22 06:38:09;;;;;;;4.03;1.10;;;3.30;89.40;;;;;;5080724;28;20251;-60
2022/01/22 06:44:10;;;;;;;6.67;1.40;;;3.30;89.50;;;;;;5079317;28;20204;-61
2022/01/22 06:46:48;;;;;;;4.37;1.60;;;3.40;89.40;;;;;;5078769;28;20192;-61
2022/01/22 06:49:33;;;;;;;1.60;1.37;;;3.40;89.40;;;;;;5069401;28;20287;-59
2022/01/22 06:52:30;;;;;;;4.40;1.60;;;3.40;89.50;;;;;;5063750;28;20236;-60
2022/01/22 06:55:03;;;;;;;1.77;1.17;;;3.30;89.60;;;;;;5066693;28;20227;-60
2022/01/22 06:57:32;;;;;;;10.07;2.47;;;3.30;89.80;;;;;;5064184;28;20193;-60
2022/01/22 07:00:00;;;;;;;6.43;1.70;;;3.30;90.00;;;;;;5079525;28;20209;-60
2022/01/22 07:02:28;;;;;;;4.93;1.40;;;3.30;90.00;;;;;;5076492;28;20211;-60
2022/01/22 07:04:56;;;;;;;3.30;1.40;;;3.30;90.10;;;;;;5089070;28;20204;-60
2022/01/22 07:07:42;;;;;;;3.80;1.40;;;3.40;90.20;;;;;;5090351;28;20700;-60
2022/01/22 07:10:10;;;;;;;6.37;1.50;;;3.50;90.20;;;;;;5087206;28;20663;-60
2022/01/22 07:12:40;;;;;;;3.33;1.43;;;3.50;90.20;;;;;;5084616;28;20204;-60
2022/01/22 07:15:08;;;;;;;11.00;2.83;;;3.50;90.30;;;;;;5085686;28;20674;-60
2022/01/22 07:17:37;;;;;;;11.67;2.63;;;3.50;90.30;;;;;;5085356;28;20197;-60
2022/01/22 07:20:15;;;;;;;5.60;2.00;;;3.50;90.40;;;;;;5088004;28;20283;-60
2022/01/22 07:22:51;;;;;;;4.80;1.77;;;3.50;90.50;;;;;;5087140;28;20203;-60
2022/01/22 07:25:38;;;;;;;6.83;1.83;;;3.50;90.70;;;;;;5084165;28;20224;-60
2022/01/22 07:28:28;;;;;;;5.50;2.13;;;3.50;90.90;;;;;;5084373;28;20213;-61
2022/01/22 07:30:55;;;;;;;2.77;1.17;;;3.50;91.20;;;;;;5084223;28;20201;-61
2022/01/22 07:33:24;;;;;;;2.70;1.53;;;3.40;91.20;;;;;;5083435;28;20319;-60
2022/01/22 07:35:53;;;;;;;2.90;1.40;;;3.50;91.40;;;;;;5084714;28;20210;-61
2022/01/22 07:38:21;;;;;;;12.03;2.10;;;3.50;91.50;;;;;;5080348;28;20240;-60
2022/01/22 07:40:48;;;;;;;4.60;1.83;;;3.50;91.70;;;;;;5079908;28;20224;-61
2022/01/22 07:43:38;;;;;;;9.20;1.37;;;3.50;91.90;;;;;;5081066;28;20289;-60
2022/01/22 07:46:29;;;;;;;3.07;1.40;;;3.50;92.00;;;;;;5081999;28;20254;-60
2022/01/22 07:49:19;;;;;;;5.97;1.83;;;3.50;92.00;;;;;;5077114;28;20597;-61
2022/01/22 07:51:49;;;;;;;1.10;0.90;;;3.50;92.60;;;;;;5079410;28;20201;-61
2022/01/22 07:54:16;;;;;;;3.53;1.00;;;3.50;92.90;;;;;;5078629;28;20203;-61
2022/01/22 07:56:44;;;;;;;3.77;1.13;;;3.50;92.90;;;;;;5076796;28;20251;-60
2022/01/22 07:59:14;;;;;;;4.40;1.23;;;3.50;93.10;;;;;;5084892;28;20208;-61
2022/01/22 08:01:46;;;;;;;3.53;1.47;;;3.50;94.00;;;;;;5090465;28;20228;-60
2022/01/22 08:04:25;;;;;;;2.73;1.20;;;3.60;95.10;;;;;;5088111;28;20287;-61
2022/01/22 08:07:12;;;;;;;1.47;0.83;;;3.60;95.00;;;;;;5090466;28;20273;-61
2022/01/22 08:09:58;;;;;;;8.93;1.93;;;3.70;95.00;;;;;;5086783;28;20203;-61
2022/01/22 08:12:50;;;;;;;6.37;2.23;;;3.70;95.00;;;;;;5083387;28;20203;-60
2022/01/22 08:15:19;;;;;;;3.80;1.60;;;3.80;95.60;;;;;;5082892;28;20212;-60
2022/01/22 08:17:47;;;;;;;7.10;1.77;;;3.70;96.20;;;;;;5081301;28;20201;-59
2022/01/22 08:20:20;;;;;;;2.73;1.37;;;3.70;97.20;;;;;;5076095;28;20608;-60
2022/01/22 08:22:51;;;;;;;2.10;1.27;;;3.70;97.50;;;;;;5065133;28;20196;-59
2022/01/22 08:25:48;;;;;;;4.40;1.67;;;3.60;97.70;;;;;;5060730;28;20200;-60
2022/01/22 08:31:18;;;;;;;6.17;2.17;;;3.60;98.10;;;;;;5077745;28;20373;-61
2022/01/22 08:36:30;;;;;;;5.03;1.70;;;3.80;97.70;;;;;;5075470;28;20189;-59
2022/01/22 08:38:58;;;;;;;4.93;1.90;;;3.80;97.20;;;;;;5078669;28;20231;-60
2022/01/22 08:41:27;;;;;;;6.60;2.00;;;3.90;96.60;;;;;;5074663;28;20236;-60
2022/01/22 08:43:54;;;;;;;3.20;1.50;;;3.90;96.30;;;;;;5077562;28;20205;-61
2022/01/22 08:46:23;;;;;;;3.53;1.50;;;3.90;96.20;;;;;;5071272;28;20675;-60
2022/01/22 08:48:50;;;;;;;3.83;1.60;;;3.90;95.60;;;;;;5084293;28;20687;-61
2022/01/22 08:51:18;;;;;;;3.50;1.30;;;3.90;95.60;;;;;;5075564;28;20564;-60
2022/01/22 08:53:45;;;;;;;5.03;2.10;;;3.90;95.40;;;;;;5069689;28;20580;-60
2022/01/22 08:56:13;;;;;;;5.37;1.77;;;3.90;95.40;;;;;;5070008;28;20284;-61
2022/01/22 08:58:44;;;;;;;6.40;1.90;;;3.90;95.40;;;;;;5082028;28;20265;-61
2022/01/22 09:01:26;;;;;;;1.90;1.53;;;3.90;95.50;;;;;;5075228;28;20297;-61
2022/01/22 09:03:57;;;;;;;5.30;1.90;;;4.00;95.50;;;;;;5076184;28;20205;-61
2022/01/22 09:06:45;;;;;;;5.53;2.20;;;4.00;95.60;;;;;;5079931;28;20211;-61
2022/01/22 09:09:35;;;;;;;4.30;1.57;;;4.00;95.60;;;;;;5086034;28;20334;-61
2022/01/22 09:12:20;;;;;;;1.67;1.50;;;4.00;95.70;;;;;;5081578;28;20204;-59
2022/01/22 09:14:54;;;;;;;1.50;1.20;;;4.00;95.70;;;;;;5086367;28;20291;-60
2022/01/22 09:17:23;;;;;;;2.70;1.10;;;4.00;95.80;;;;;;5084635;28;20200;-61
2022/01/22 09:19:56;;;;;;;4.03;1.90;;;4.00;95.90;;;;;;5081579;28;20593;-61
2022/01/22 09:22:24;;;;;;;5.67;1.50;;;4.00;96.10;;;;;;5078020;28;20216;-61
2022/01/22 09:24:53;;;;;;;2.43;1.67;;;4.10;97.00;;;;;;5084280;28;20200;-60
2022/01/22 09:27:21;;;;;;;2.33;1.50;;;4.10;97.60;;;;;;5078832;28;20209;-61
2022/01/22 09:29:49;;;;;;;2.33;1.17;;;4.00;98.40;;;;;;5077063;28;20568;-61
2022/01/22 09:32:17;;;;;;;1.10;1.00;;;4.00;98.80;;;;;;5101597;28;20567;-61
2022/01/22 09:35:07;;;;;;;1.43;0.80;;;3.90;99.20;;;;;;5062863;28;20200;-60
2022/01/22 09:37:50;;;;;;;2.70;1.13;;;3.80;99.60;;;;;;5064158;28;20250;-60
2022/01/22 09:40:37;;;;;;;1.00;0.90;;;3.80;99.90;;;;;;5063964;28;20547;-61
2022/01/22 09:43:24;;;;;;;2.73;1.60;;;3.70;99.90;;;;;;5067884;28;20205;-60
2022/01/22 09:46:10;;;;;;;2.73;1.20;;;3.80;99.90;;;;;;5064841;28;20222;-60
2022/01/22 09:48:50;;;;;;;1.93;1.00;;;3.90;99.90;;;;;;5067605;28;20635;-60
2022/01/22 09:51:45;;;;;;;1.40;1.30;;;4.00;99.90;;;;;;5067228;28;20201;-60
2022/01/22 09:54:48;;;;;;;2.83;1.20;;;4.10;99.90;;;;;;5038157;28;20209;-60
2022/01/22 09:57:36;;;;;;;2.17;1.43;;;4.10;99.90;;;;;;5062263;28;20565;-60
2022/01/22 10:00:23;;;;;;;1.90;1.53;;;4.00;99.90;;;;;;5063637;28;20745;-61
2022/01/22 10:02:56;;;;;;;2.77;1.50;;;3.90;99.90;;;;;;5068570;28;20200;-61
2022/01/22 10:05:36;;;;;;;4.47;1.60;;;3.90;99.90;;;;;;5058826;28;20208;-60
2022/01/22 10:08:32;;;;;;;6.30;1.70;;;3.90;99.90;;;;;;5072219;28;20298;-60
2022/01/22 10:11:20;;;;;;;4.77;1.90;;;3.90;99.90;;;;;;5059166;28;20320;-61
2022/01/22 10:14:25;;;;;;;7.53;1.83;;;3.90;99.90;;;;;;5042986;28;20193;-60
2022/01/22 10:16:52;;;;;;;3.93;1.40;;;3.80;99.90;;;;;;5061976;28;20636;-60
2022/01/22 10:19:21;;;;;;;5.57;1.50;;;3.80;99.90;;;;;;5072935;28;20195;-61
2022/01/22 10:21:53;;;;;;;3.33;1.30;;;3.90;99.90;;;;;;5082369;28;20235;-60
2022/01/22 10:24:37;;;;;;;5.67;1.67;;;3.90;99.90;;;;;;5068098;28;20280;-60
2022/01/22 10:27:33;;;;;;;1.87;1.60;;;3.90;99.90;;;;;;5071445;28;20205;-59
2022/01/22 10:30:03;;;;;;;1.57;1.40;;;3.90;99.90;;;;;;5023830;28;20204;-60
2022/01/22 10:32:43;;;;;;;3.87;1.40;;;3.90;99.90;;;;;;5060889;28;20208;-61
2022/01/22 10:35:48;;;;;;;2.40;1.00;;;3.90;99.90;;;;;;5062003;28;20198;-61
2022/01/22 10:38:43;;;;;;;3.93;1.03;;;3.90;99.90;;;;;;5068233;28;20235;-61
2022/01/22 10:41:12;;;;;;;1.70;1.20;;;3.90;99.90;;;;;;5075738;28;20238;-61
2022/01/22 10:43:43;;;;;;;3.90;2.40;;;3.90;99.90;;;;;;5077737;28;20193;-61
2022/01/22 10:46:19;;;;;;;4.13;2.07;;;3.90;99.90;;;;;;5079476;28;20196;-61
2022/01/22 10:48:55;;;;;;;5.13;1.63;;;3.90;99.90;;;;;;5078461;28;20205;-61
2022/01/22 10:51:24;;;;;;;2.60;1.77;;;3.90;99.90;;;;;;5075049;28;20256;-61
2022/01/22 10:53:55;;;;;;;5.97;3.00;;;3.80;99.90;;;;;;5073563;28;20270;-61
2022/01/22 10:56:25;;;;;;;7.03;3.80;;;3.80;99.90;;;;;;5078610;28;20738;-61
2022/01/22 10:58:56;;;;;;;4.10;3.10;;;3.80;99.90;;;;;;5086214;28;20602;-61
2022/01/22 11:01:25;;;;;;;4.40;2.70;;;3.80;99.90;;;;;;5072067;28;20221;-63
2022/01/22 11:04:10;;;;;;;1.80;1.70;;;3.80;99.90;;;;;;5068240;28;20231;-61
2022/01/22 11:06:38;;;;;;;2.07;1.73;;;3.80;99.90;;;;;;5067945;28;20196;-61
2022/01/22 11:09:07;;;;;;;1.90;1.50;;;3.90;99.90;;;;;;5081707;28;20201;-61
2022/01/22 11:11:38;;;;;;;3.47;1.70;;;3.90;99.90;;;;;;5086982;28;20192;-61
2022/01/22 11:14:08;;;;;;;7.23;1.93;;;4.00;99.90;;;;;;5082206;28;20280;-62
2022/01/22 11:16:35;;;;;;;3.53;1.40;;;4.10;99.90;;;;;;5078345;28;20557;-61
2022/01/22 11:19:03;;;;;;;7.30;2.07;;;4.00;99.90;;;;;;5080743;28;20619;-61
2022/01/22 11:21:32;;;;;;;5.47;2.10;;;4.10;99.90;;;;;;5085648;28;20230;-61
2022/01/22 11:23:59;;;;;;;6.23;2.40;;;4.20;99.90;;;;;;5072924;28;20660;-61
2022/01/22 11:26:27;;;;;;;8.40;2.70;;;4.20;99.90;;;;;;5075605;28;20201;-61
2022/01/22 11:28:57;;;;;;;6.00;3.07;;;4.20;99.90;;;;;;5081009;28;20270;-61
2022/01/22 11:31:27;;;;;;;7.70;2.20;;;4.20;99.90;;;;;;5085592;28;20185;-61
2022/01/22 11:33:57;;;;;;;4.17;2.37;;;4.20;99.90;;;;;;5078439;28;20227;-62
2022/01/22 11:36:28;;;;;;;9.17;2.70;;;4.20;99.90;;;;;;5077576;28;20197;-63
2022/01/22 11:38:58;;;;;;;3.87;2.03;;;4.40;99.90;;;;;;5079636;28;20196;-61
2022/01/22 11:41:26;;;;;;;9.47;2.30;;;4.40;99.90;;;;;;5076215;28;20316;-61
2022/01/22 11:44:03;;;;;;;2.57;1.70;;;4.40;99.90;;;;;;5080245;28;20196;-62
2022/01/22 11:46:34;;;;;;;3.93;1.80;;;4.50;99.90;;;;;;5078170;28;20330;-61
2022/01/22 11:49:21;;;;;;;4.13;1.37;;;4.60;99.90;;;;;;5079758;28;20212;-62
2022/01/22 11:51:50;;;;;;;5.07;2.00;;;4.70;99.90;;;;;;5073919;28;20192;-62
2022/01/22 11:54:20;;;;;;;1.67;1.40;;;4.80;99.90;;;;;;5074286;28;20734;-61
2022/01/22 11:56:50;;;;;;;2.30;1.30;;;4.80;99.90;;;;;;5072110;28;20714;-60
2022/01/22 11:59:21;;;;;;;1.10;1.00;;;4.90;99.90;;;;;;5059012;28;20201;-61
2022/01/22 12:01:54;;;;;;;1.47;1.10;;;5.00;99.90;;;;;;5085920;28;20212;-61
2022/01/22 12:04:23;;;;;;;1.93;1.60;;;5.10;99.90;;;;;;5089412;28;20192;-61
2022/01/22 12:07:14;;;;;;;4.53;1.80;;;5.10;99.90;;;;;;5089961;28;20212;-62
2022/01/22 12:09:51;;;;;;;3.00;1.40;;;5.20;99.90;;;;;;5076976;28;20536;-62
2022/01/22 12:15:12;;;;;;;4.83;2.17;;;5.20;99.90;;;;;;5082809;28;20659;-62
2022/01/22 12:18:06;;;;;;;8.93;2.37;;;5.30;99.90;;;;;;5079221;28;20212;-61
2022/01/22 12:23:49;;;;;;;4.17;1.70;;;5.20;99.90;;;;;;5079538;28;20197;-59
2022/01/22 12:26:36;;;;;;;13.83;2.57;;;5.20;99.90;;;;;;5080635;28;20197;-61
2022/01/22 12:29:39;;;;;;;25.63;3.50;;;5.30;99.90;;;;;;5068941;28;20603;-62
2022/01/22 12:32:37;;;;;;;7.83;2.23;;;5.30;99.90;;;;;;5072104;28;20196;-62
2022/01/22 12:35:11;;;;;;;2.67;2.03;;;5.30;99.90;;;;;;5102565;27;20299;-61
2022/01/22 12:37:46;;;;;;;4.93;1.60;;;5.20;99.90;;;;;;5077243;28;20224;-61
2022/01/22 12:40:14;;;;;;;2.37;1.60;;;5.10;99.90;;;;;;5071330;28;20770;-62
2022/01/22 12:43:06;;;;;;;20.30;2.90;;;5.00;99.90;;;;;;5073599;28;20722;-61
2022/01/22 12:45:35;;;;;;;8.97;1.70;;;5.00;99.90;;;;;;5066381;28;20202;-61
2022/01/22 12:48:04;;;;;;;2.70;1.90;;;5.00;99.90;;;;;;5078222;28;20197;-62
2022/01/22 12:50:35;;;;;;;2.80;1.37;;;5.00;99.90;;;;;;5072711;28;20196;-61
2022/01/22 12:53:10;;;;;;;2.03;1.30;;;4.90;99.90;;;;;;5071657;28;20193;-61
2022/01/22 12:56:02;;;;;;;9.43;1.40;;;4.90;99.90;;;;;;5075334;28;20184;-60
2022/01/22 12:58:31;;;;;;;82.97;5.47;;;4.90;99.90;;;;;;5084788;28;20598;-61
2022/01/22 13:01:29;;;;;;;100.47;7.33;;;5.00;99.90;;;;;;5071374;28;20568;-60
2022/01/22 13:04:01;;;;;;;55.40;5.67;;;5.20;99.90;;;;;;5056617;28;20216;-60
2022/01/22 13:06:40;;;;;;;48.80;5.23;;;5.30;99.90;;;;;;5083608;28;20296;-62
2022/01/22 13:09:43;;;;;;;16.23;2.63;;;5.40;99.90;;;;;;5082906;28;20204;-62
2022/01/22 13:12:12;;;;;;;8.77;2.17;;;5.40;99.90;;;;;;5077046;28;20187;-61
2022/01/22 13:14:39;;;;;;;3.70;2.17;;;5.40;99.90;;;;;;5079863;28;20192;-61
2022/01/22 13:17:13;;;;;;;2.40;1.43;;;5.40;99.90;;;;;;5066219;28;20188;-62
2022/01/22 13:19:42;;;;;;;7.17;1.40;;;5.40;99.90;;;;;;5071464;28;20200;-62
2022/01/22 13:22:09;;;;;;;44.63;3.77;;;5.40;99.90;;;;;;5073272;28;20213;-61
2022/01/22 13:24:37;;;;;;;5.23;1.73;;;5.40;99.90;;;;;;5077942;28;20200;-62
2022/01/22 13:27:09;;;;;;;48.60;3.53;;;5.40;99.90;;;;;;5070606;28;20280;-61
2022/01/22 13:29:39;;;;;;;32.93;4.27;;;5.30;99.90;;;;;;5061599;28;20230;-61
2022/01/22 13:32:13;;;;;;;19.73;3.20;;;5.40;99.90;;;;;;5073162;28;20180;-61
2022/01/22 13:35:01;;;;;;;14.57;3.67;;;5.50;99.90;;;;;;5078898;28;20223;-61
2022/01/22 13:40:39;;;;;;;6.70;3.33;;;5.60;99.90;;;;;;5065899;28;20258;-62
2022/01/22 13:48:56;;;;;;;17.23;4.43;;;5.40;99.90;;;;;;5066626;28;20191;-61
2022/01/22 13:51:26;;;;;;;15.30;4.53;;;5.30;99.90;;;;;;5076191;28;20197;-61
2022/01/22 13:53:53;;;;;;;10.63;4.60;;;5.20;99.90;;;;;;5069154;28;20197;-61
2022/01/22 13:56:22;;;;;;;9.17;3.70;;;5.10;99.90;;;;;;5068348;28;20259;-61
2022/01/22 13:58:55;;;;;;;8.80;2.97;;;5.10;99.90;;;;;;5066037;28;22646;-60
2022/01/22 14:01:39;;;;;;;6.03;2.80;;;5.10;99.90;;;;;;5085077;28;20228;-61
2022/01/22 14:04:08;;;;;;;4.83;1.97;;;5.10;99.90;;;;;;5068363;28;20201;-61
2022/01/22 14:06:36;;;;;;;4.07;1.93;;;5.00;99.90;;;;;;5086398;28;20200;-61
2022/01/22 14:09:14;;;;;;;6.37;2.60;;;5.00;99.90;;;;;;5084054;28;20216;-61
2022/01/22 14:12:03;;;;;;;4.20;1.90;;;5.00;99.90;;;;;;5066380;28;20200;-61
2022/01/22 14:14:32;;;;;;;5.93;1.80;;;5.00;99.90;;;;;;5079407;28;20211;-60
2022/01/22 14:17:10;;;;;;;4.77;2.00;;;5.00;99.90;;;;;;5070861;28;20775;-60
2022/01/22 14:19:37;;;;;;;7.60;2.00;;;5.00;99.90;;;;;;5070876;28;20267;-61
2022/01/22 14:22:06;;;;;;;3.27;1.77;;;5.00;99.90;;;;;;5069191;28;20224;-61
2022/01/22 14:24:33;;;;;;;5.00;1.80;;;5.00;99.90;;;;;;5072089;28;20200;-61
2022/01/22 14:27:00;;;;;;;4.50;2.40;;;5.00;99.90;;;;;;5070120;28;20192;-62
2022/01/22 14:29:28;;;;;;;5.10;2.60;;;5.00;99.90;;;;;;5071909;28;20207;-61
2022/01/22 14:31:57;;;;;;;5.63;2.63;;;4.90;99.90;;;;;;5070275;28;20302;-61
2022/01/22 14:34:33;;;;;;;3.37;2.17;;;5.00;99.90;;;;;;5078216;28;20527;-62
2022/01/22 14:37:01;;;;;;;4.47;2.37;;;4.90;99.90;;;;;;5073228;28;20224;-61
2022/01/22 14:43:58;;;;;;;3.40;2.17;;;4.90;99.90;;;;;;5064518;28;20220;-61
2022/01/22 14:45:22;;;;;;;2.03;1.60;;;4.80;99.10;;;;;;5062260;28;20194;-61
2022/01/22 14:47:54;;;;;;;2.83;1.50;;;4.80;98.40;;;;;;5066495;28;20280;-61